NCAR-RAP Real-Time Weather Data

Output produced by METARs form (25 April 2014  05:00 UTC)
found at http://weather.rap.ucar.edu/surface/
 
Conditions at: KLOU observed 25 April 2014  04:53 UTC
Temperature: 18.9°C (66°F)
Dewpoint: 6.7°C (44°F) [RH = 45%]
Pressure (altimeter): 29.73 inches Hg (1006.9 mb)
[Sea-level pressure: 1006.3 mb]
Winds: variable direction winds at 7 MPH (6 knots; 3.1 m/s)
Visibility: 10 or more miles (16+ km)
Ceiling: 7000 feet AGL
Clouds: broken clouds at 7000 feet AGL
overcast cloud deck at 9000 feet AGL
Present Weather: automated observation with no human augmentation;
there may or may not be significant weather present at this time
KLOU 250453Z AUTO VRB06KT 10SM BKN070 OVC090 19/07 A2973 RMK AO2 RAB28E52 SLP063 P0000 T01890067 402440117 TSNO